Time;durP1;ratioP1;P1;durP2;ratioP2;P2;SDS_P1;SDS_P2;PMS_P1;PMS_P2;Temp;Humidity;BMP_temperature;BMP_pressure;BME280_temperature;BME280_humidity;BME280_pressure;Samples;Min_cycle;Max_cycle;Signal;HPM_P1;HPM_P2
2022/04/27 00:01:14;;;;;;;;;10.67;10.00;;;;;21.56;42.18;101238.61;110002;1267;23880;-49
2022/04/27 00:03:42;;;;;;;;;13.00;12.33;;;;;21.56;42.08;101241.96;109975;1266;19694;-50
2022/04/27 00:06:09;;;;;;;;;14.67;13.00;;;;;21.56;42.23;101243.94;109862;1267;19586;-51
2022/04/27 00:08:37;;;;;;;;;14.67;13.00;;;;;21.56;42.30;101246.12;110098;1267;23222;-50
2022/04/27 00:11:04;;;;;;;;;12.00;10.00;;;;;21.57;42.10;101246.39;110036;1266;19251;-53
2022/04/27 00:13:31;;;;;;;;;15.33;12.33;;;;;21.56;42.29;101243.80;110131;1261;20194;-50
2022/04/27 00:15:59;;;;;;;;;11.33;10.00;;;;;21.55;42.19;101244.21;110400;1260;22739;-50
2022/04/27 00:18:26;;;;;;;;;11.00;11.00;;;;;21.55;42.36;101243.16;110391;1261;19434;-51
2022/04/27 00:20:53;;;;;;;;;10.00;10.00;;;;;21.56;42.21;101245.10;110423;1261;20060;-52
2022/04/27 00:23:25;;;;;;;;;12.33;12.00;;;;;21.56;42.31;101251.27;110495;1261;20726;-52
2022/04/27 00:25:52;;;;;;;;;11.33;10.00;;;;;21.55;42.10;101257.55;110455;1261;22295;-51
2022/04/27 00:28:19;;;;;;;;;13.00;12.33;;;;;21.55;42.06;101258.73;110392;1261;19429;-51
2022/04/27 00:30:47;;;;;;;;;12.67;12.00;;;;;21.56;42.25;101260.34;110465;1261;20336;-52
2022/04/27 00:33:15;;;;;;;;;13.00;12.67;;;;;21.56;42.15;101259.45;110393;1261;21448;-52
2022/04/27 00:35:42;;;;;;;;;12.00;12.00;;;;;21.55;42.15;101261.34;110404;1262;19943;-51
2022/04/27 00:38:09;;;;;;;;;13.50;12.00;;;;;21.55;41.98;101266.24;110428;1261;23192;-51
2022/04/27 00:40:37;;;;;;;;;16.00;13.33;;;;;21.55;42.05;101266.45;110417;1261;19316;-52
2022/04/27 00:43:04;;;;;;;;;12.00;12.00;;;;;21.56;42.10;101267.81;110393;1262;19854;-53
2022/04/27 00:45:31;;;;;;;;;9.67;9.00;;;;;21.56;42.21;101266.92;110378;1261;20327;-50
2022/04/27 00:47:58;;;;;;;;;12.33;12.00;;;;;21.56;42.24;101266.21;110420;1261;22973;-49
2022/04/27 00:50:26;;;;;;;;;12.33;10.00;;;;;21.55;42.11;101267.84;110478;1261;22678;-52
2022/04/27 00:52:53;;;;;;;;;12.00;10.00;;;;;21.55;42.08;101264.05;110430;1261;20851;-51
2022/04/27 00:55:20;;;;;;;;;13.33;12.00;;;;;21.55;42.00;101263.20;110451;1262;19272;-51
2022/04/27 00:57:47;;;;;;;;;13.00;12.00;;;;;21.54;42.05;101262.87;110388;1262;19566;-52
2022/04/27 01:00:15;;;;;;;;;12.00;10.00;;;;;21.55;42.17;101268.25;110301;1261;20530;-50
2022/04/27 01:02:42;;;;;;;;;11.33;9.67;;;;;21.55;42.10;101264.48;110508;1261;23536;-53
2022/04/27 01:05:11;;;;;;;;;14.00;12.00;;;;;21.54;42.01;101269.62;110476;1261;22591;-52
2022/04/27 01:07:38;;;;;;;;;10.00;10.00;;;;;21.53;42.03;101273.55;110445;1261;22130;-50
2022/04/27 01:10:06;;;;;;;;;12.00;11.33;;;;;21.53;41.94;101271.02;110416;1262;26938;-52
2022/04/27 01:12:33;;;;;;;;;9.00;9.00;;;;;21.53;41.93;101273.41;110456;1261;19696;-51
2022/04/27 01:15:00;;;;;;;;;10.00;9.00;;;;;21.53;42.10;101269.83;110484;1261;20751;-49
2022/04/27 01:17:27;;;;;;;;;8.67;8.00;;;;;21.52;41.77;101268.36;110449;1261;19174;-51
2022/04/27 01:19:55;;;;;;;;;14.33;12.67;;;;;21.52;42.02;101267.50;110417;1261;19575;-51
2022/04/27 01:22:22;;;;;;;;;9.00;8.67;;;;;21.53;41.93;101269.63;110421;1261;20400;-50
2022/04/27 01:24:50;;;;;;;;;10.00;9.67;;;;;21.53;41.79;101271.81;110283;1261;20765;-50
2022/04/27 01:27:17;;;;;;;;;13.00;12.67;;;;;21.53;41.88;101274.13;110385;1262;22997;-51
2022/04/27 01:29:44;;;;;;;;;13.00;12.00;;;;;21.52;41.76;101274.94;110396;1261;20368;-51
2022/04/27 01:32:12;;;;;;;;;10.00;9.50;;;;;21.52;41.74;101277.30;110422;1261;19260;-49
2022/04/27 01:34:39;;;;;;;;;10.00;10.00;;;;;21.52;41.90;101276.04;110439;1261;19614;-52
2022/04/27 01:39:52;;;;;;;;;9.67;9.00;;;;;21.52;41.90;101279.48;110423;1262;19038;-51
2022/04/27 01:42:20;;;;;;;;;10.00;9.50;;;;;21.53;41.79;101278.52;110391;1261;19479;-50
2022/04/27 01:44:47;;;;;;;;;12.00;10.00;;;;;21.53;41.86;101277.05;110437;1261;20470;-52
2022/04/27 01:47:14;;;;;;;;;12.00;9.00;;;;;21.53;41.98;101284.49;110467;1261;23652;-53
2022/04/27 01:49:41;;;;;;;;;9.33;9.00;;;;;21.53;41.96;101282.45;110440;1261;19647;-52
2022/04/27 01:54:54;;;;;;;;;12.33;10.67;;;;;21.53;41.79;101287.27;110427;1261;19228;-51
2022/04/27 01:57:21;;;;;;;;;10.67;10.00;;;;;21.53;41.77;101287.42;110467;1261;21096;-51
2022/04/27 01:59:48;;;;;;;;;10.00;10.00;;;;;21.52;41.78;101285.48;110502;1261;20391;-51
2022/04/27 02:02:15;;;;;;;;;10.00;10.00;;;;;21.52;41.87;101284.80;110345;1261;19157;-50
2022/04/27 02:04:43;;;;;;;;;12.00;8.50;;;;;21.52;41.67;101284.94;110406;1262;21896;-53
2022/04/27 02:07:10;;;;;;;;;10.00;9.00;;;;;21.52;41.58;101288.41;110423;1261;21748;-52
2022/04/27 02:09:37;;;;;;;;;8.33;6.67;;;;;21.52;41.82;101291.51;110442;1261;19147;-51
2022/04/27 02:12:04;;;;;;;;;12.33;10.00;;;;;21.52;41.72;101289.14;110444;1261;19847;-50
2022/04/27 02:14:32;;;;;;;;;11.33;9.00;;;;;21.52;41.50;101290.27;110464;1261;20979;-51
2022/04/27 02:16:59;;;;;;;;;9.33;9.00;;;;;21.52;41.61;101291.73;110409;1262;19324;-52
2022/04/27 02:19:27;;;;;;;;;10.00;10.00;;;;;21.52;41.73;101288.44;110407;1261;19456;-50
2022/04/27 02:21:56;;;;;;;;;10.33;9.33;;;;;21.52;41.67;101289.73;110490;1261;20338;-52
2022/04/27 02:24:24;;;;;;;;;10.00;8.67;;;;;21.52;41.81;101286.11;110454;1261;19276;-52
2022/04/27 02:26:52;;;;;;;;;9.00;9.00;;;;;21.50;41.57;101291.88;110410;1261;19600;-49
2022/04/27 02:29:20;;;;;;;;;10.00;8.67;;;;;21.51;41.68;101300.15;110432;1261;20172;-51
2022/04/27 02:31:47;;;;;;;;;8.00;8.00;;;;;21.51;41.47;101305.41;110432;1261;19891;-54
2022/04/27 02:34:14;;;;;;;;;10.67;9.00;;;;;21.51;41.45;101307.48;110417;1261;19658;-53
2022/04/27 02:36:42;;;;;;;;;9.33;9.33;;;;;21.50;41.59;101306.05;110472;1261;20419;-51
2022/04/27 02:39:09;;;;;;;;;10.00;10.00;;;;;21.50;41.40;101307.79;110392;1262;19983;-50
2022/04/27 02:41:37;;;;;;;;;6.00;6.00;;;;;21.50;41.59;101309.95;110451;1261;23107;-50
2022/04/27 02:44:04;;;;;;;;;12.00;11.33;;;;;21.49;41.65;101307.53;110413;1261;20297;-50
2022/04/27 02:46:31;;;;;;;;;8.00;8.00;;;;;21.49;41.31;101305.31;110401;1261;21916;-54
2022/04/27 02:51:51;;;;;;;;;8.67;8.33;;;;;21.49;41.53;101301.33;110439;1261;20280;-55
2022/04/27 02:54:18;;;;;;;;;9.00;8.00;;;;;21.49;41.44;101304.97;110409;1261;22622;-52
2022/04/27 02:56:45;;;;;;;;;8.50;8.50;;;;;21.49;41.54;101300.54;110497;1261;19393;-54
2022/04/27 02:59:13;;;;;;;;;9.00;9.00;;;;;21.49;41.60;101303.13;110427;1262;20335;-53
2022/04/27 03:01:40;;;;;;;;;11.00;10.00;;;;;21.49;41.22;101305.31;110395;1262;19279;-51
2022/04/27 03:04:07;;;;;;;;;8.00;8.00;;;;;21.49;41.38;101305.71;110344;1262;21870;-52
2022/04/27 03:06:34;;;;;;;;;9.00;8.00;;;;;21.49;41.37;101306.40;110402;1262;23151;-50
2022/04/27 03:09:02;;;;;;;;;9.00;8.00;;;;;21.49;41.50;101311.27;110412;1261;19225;-53
2022/04/27 03:11:29;;;;;;;;;11.67;9.00;;;;;21.49;41.38;101305.68;110469;1262;19421;-50
2022/04/27 03:13:56;;;;;;;;;9.33;9.00;;;;;21.49;41.46;101304.80;110435;1262;21353;-54
2022/04/27 03:16:23;;;;;;;;;8.00;8.00;;;;;21.48;41.28;101310.70;110419;1261;19244;-51
2022/04/27 03:18:51;;;;;;;;;8.00;8.00;;;;;21.49;41.43;101316.63;110395;1262;20288;-52
2022/04/27 03:21:18;;;;;;;;;9.00;8.00;;;;;21.49;41.40;101320.99;110406;1261;20395;-54
2022/04/27 03:23:46;;;;;;;;;9.00;8.50;;;;;21.49;41.27;101329.14;110387;1262;19279;-52
2022/04/27 03:26:13;;;;;;;;;10.00;9.00;;;;;21.48;41.14;101329.28;110377;1262;19818;-50
2022/04/27 03:28:40;;;;;;;;;10.00;9.00;;;;;21.47;41.31;101334.02;110419;1261;20307;-51
2022/04/27 03:31:07;;;;;;;;;13.00;11.33;;;;;21.47;41.11;101335.30;110440;1261;19165;-52
2022/04/27 03:33:34;;;;;;;;;10.00;9.50;;;;;21.48;41.23;101336.92;110410;1262;23032;-49
2022/04/27 03:36:02;;;;;;;;;8.50;7.00;;;;;21.47;41.16;101340.77;110401;1261;20404;-51
2022/04/27 03:38:29;;;;;;;;;8.00;8.00;;;;;21.47;41.31;101344.82;110424;1261;19270;-51
2022/04/27 03:40:56;;;;;;;;;8.00;8.00;;;;;21.48;41.30;101347.83;110458;1261;19574;-50
2022/04/27 03:43:23;;;;;;;;;9.33;8.67;;;;;21.48;41.18;101355.42;110441;1262;20474;-50
2022/04/27 03:45:51;;;;;;;;;9.00;9.00;;;;;21.47;41.31;101358.08;110458;1261;19304;-53
2022/04/27 03:48:18;;;;;;;;;9.00;8.00;;;;;21.47;41.22;101362.84;110434;1261;23889;-52
2022/04/27 03:50:45;;;;;;;;;9.50;8.00;;;;;21.47;41.15;101364.09;110453;1261;20387;-52
2022/04/27 03:53:12;;;;;;;;;9.00;8.33;;;;;21.47;41.36;101363.54;110413;1261;19261;-54
2022/04/27 03:55:40;;;;;;;;;10.00;9.00;;;;;21.46;41.18;101361.41;110429;1261;19897;-51
2022/04/27 03:58:07;;;;;;;;;8.00;8.00;;;;;21.47;41.10;101364.85;110442;1261;20478;-50
2022/04/27 04:00:34;;;;;;;;;9.00;9.00;;;;;21.47;40.95;101367.66;110443;1261;19277;-51
2022/04/27 04:03:02;;;;;;;;;8.00;8.00;;;;;21.47;41.10;101369.54;110397;1262;23025;-48
2022/04/27 04:05:29;;;;;;;;;9.00;8.67;;;;;21.48;41.11;101372.74;110458;1261;20445;-50
2022/04/27 04:07:56;;;;;;;;;10.00;8.00;;;;;21.47;41.13;101378.61;110412;1261;19133;-51
2022/04/27 04:10:23;;;;;;;;;9.00;8.00;;;;;21.47;41.11;101379.67;110430;1261;19461;-51
2022/04/27 04:12:51;;;;;;;;;13.00;9.00;;;;;21.48;41.19;101380.93;110450;1261;23014;-51
2022/04/27 04:15:18;;;;;;;;;10.00;9.00;;;;;21.48;41.04;101384.52;110418;1261;23394;-50
2022/04/27 04:17:45;;;;;;;;;8.33;8.33;;;;;21.48;40.98;101386.39;110447;1261;19722;-52
2022/04/27 04:20:14;;;;;;;;;12.00;9.00;;;;;21.48;41.01;101387.82;110294;1262;20597;-52
2022/04/27 04:22:41;;;;;;;;;13.00;9.50;;;;;21.48;40.99;101396.14;110424;1261;19300;-51
2022/04/27 04:30:38;;;;;;;;;8.67;8.67;;;;;21.49;41.05;101416.29;110436;1260;19288;-50
2022/04/27 04:33:05;;;;;;;;;9.00;8.33;;;;;21.48;40.86;101420.11;110418;1261;22978;-51
2022/04/27 04:35:32;;;;;;;;;13.33;11.33;;;;;21.49;41.01;101426.61;110409;1262;20316;-52
2022/04/27 04:37:59;;;;;;;;;8.00;8.00;;;;;21.49;40.85;101430.02;110449;1261;19182;-52
2022/04/27 04:40:27;;;;;;;;;8.67;8.00;;;;;21.48;40.89;101432.86;110390;1261;20839;-51
2022/04/27 04:42:54;;;;;;;;;9.00;8.33;;;;;21.49;41.05;101429.89;110434;1261;20247;-51
2022/04/27 04:45:21;;;;;;;;;9.00;8.00;;;;;21.49;41.03;101431.31;110461;1261;19120;-52
2022/04/27 04:47:48;;;;;;;;;9.00;8.00;;;;;21.49;40.89;101428.80;110498;1261;23446;-49
2022/04/27 04:50:16;;;;;;;;;9.00;8.00;;;;;21.49;40.99;101425.87;110438;1261;20254;-51
2022/04/27 04:52:43;;;;;;;;;6.00;6.00;;;;;21.50;40.98;101431.21;110439;1261;19254;-51
2022/04/27 04:55:10;;;;;;;;;8.00;8.00;;;;;21.50;41.01;101433.39;110417;1261;21425;-50
2022/04/27 04:57:37;;;;;;;;;13.00;9.00;;;;;21.51;40.98;101436.50;110315;1261;20447;-55
2022/04/27 05:00:04;;;;;;;;;10.00;9.00;;;;;21.52;40.81;101440.60;110331;1262;19221;-50
2022/04/27 05:02:32;;;;;;;;;9.67;9.00;;;;;21.53;41.03;101443.78;110380;1261;19477;-50
2022/04/27 05:04:59;;;;;;;;;8.67;8.33;;;;;21.55;41.04;101446.61;110371;1261;20460;-51
2022/04/27 05:07:27;;;;;;;;;7.33;7.33;;;;;21.59;41.53;101451.85;110340;1261;27397;-52
2022/04/27 05:09:54;;;;;;;;;9.00;9.00;;;;;21.67;42.32;101453.09;110402;1261;20915;-52
2022/04/27 05:12:22;;;;;;;;;5.33;5.00;;;;;21.74;42.79;101457.41;110371;1261;20357;-51
2022/04/27 05:14:50;;;;;;;;;8.00;8.00;;;;;21.78;43.15;101452.23;110399;1262;19205;-52
2022/04/27 05:17:17;;;;;;;;;9.00;8.00;;;;;21.79;42.82;101456.44;110408;1261;19470;-56
2022/04/27 05:19:44;;;;;;;;;8.67;8.00;;;;;21.79;43.26;101459.31;110365;1261;20511;-54
2022/04/27 05:22:11;;;;;;;;;9.67;9.00;;;;;21.82;43.46;101460.52;110359;1261;19054;-52
2022/04/27 05:24:39;;;;;;;;;8.50;8.50;;;;;21.84;43.60;101463.55;110344;1261;21423;-52
2022/04/27 05:27:06;;;;;;;;;9.00;8.67;;;;;21.89;43.94;101468.62;110417;1261;20250;-53
2022/04/27 05:32:18;;;;;;;;;12.00;12.00;;;;;21.95;44.14;101471.39;110328;1261;20070;-52
2022/04/27 05:34:45;;;;;;;;;12.00;10.00;;;;;21.99;44.12;101474.50;110322;1261;20481;-53
2022/04/27 05:37:13;;;;;;;;;9.67;8.00;;;;;22.01;44.02;101477.11;110409;1261;19446;-52
2022/04/27 05:39:40;;;;;;;;;9.00;9.00;;;;;21.98;43.80;101478.63;110393;1261;19529;-52
2022/04/27 05:42:07;;;;;;;;;9.67;9.67;;;;;21.93;43.85;101473.85;110428;1261;21112;-51
2022/04/27 05:44:35;;;;;;;;;10.00;9.00;;;;;21.90;43.82;101478.96;110417;1261;19205;-54
2022/04/27 05:47:02;;;;;;;;;10.00;9.00;;;;;21.93;44.08;101477.91;110276;1262;20937;-54
2022/04/27 05:49:30;;;;;;;;;9.00;9.00;;;;;22.01;44.01;101480.78;110314;1262;23147;-52
2022/04/27 05:51:57;;;;;;;;;9.00;9.00;;;;;22.08;44.14;101482.63;110438;1261;20636;-53
2022/04/27 05:54:24;;;;;;;;;10.00;9.00;;;;;22.10;43.89;101487.12;110331;1261;19542;-53
2022/04/27 05:56:52;;;;;;;;;10.67;10.33;;;;;22.09;43.69;101487.00;110379;1261;20476;-52
2022/04/27 05:59:20;;;;;;;;;11.67;11.00;;;;;22.09;43.49;101487.55;110392;1262;23142;-50
2022/04/27 06:01:48;;;;;;;;;9.33;9.00;;;;;22.07;43.37;101492.81;110338;1261;22197;-54
2022/04/27 06:04:15;;;;;;;;;10.00;10.00;;;;;22.07;43.13;101496.13;110340;1261;22731;-51
2022/04/27 06:06:42;;;;;;;;;10.67;10.00;;;;;22.07;43.19;101501.99;110281;1261;19459;-53
2022/04/27 06:09:09;;;;;;;;;9.00;7.33;;;;;22.09;43.01;101506.08;110367;1261;19811;-56
2022/04/27 06:11:37;;;;;;;;;10.33;9.67;;;;;22.09;42.92;101505.41;110372;1261;21516;-52
2022/04/27 06:14:04;;;;;;;;;12.00;11.00;;;;;22.10;43.06;101509.84;110296;1262;23166;-52
2022/04/27 06:16:33;;;;;;;;;10.00;9.50;;;;;22.12;42.81;101506.20;110242;1261;19965;-52
2022/04/27 06:19:00;;;;;;;;;10.00;9.00;;;;;22.13;42.85;101511.40;110215;1261;174919;-52
2022/04/27 06:21:31;;;;;;;;;9.00;7.00;;;;;22.13;43.09;101514.30;110424;1261;19243;-56
2022/04/27 06:23:58;;;;;;;;;13.00;10.00;;;;;22.13;42.79;101514.29;110411;1261;19552;-52
2022/04/27 06:26:25;;;;;;;;;13.67;10.67;;;;;22.06;42.29;101514.67;110373;1261;20320;-55
2022/04/27 06:28:53;;;;;;;;;13.00;11.33;;;;;22.01;41.90;101519.52;110356;1261;21090;-52
2022/04/27 06:31:20;;;;;;;;;13.00;13.00;;;;;21.99;41.99;101521.63;110368;1261;19623;-53
2022/04/27 06:33:47;;;;;;;;;13.33;11.33;;;;;21.95;42.19;101521.14;110403;1261;20322;-48
2022/04/27 06:36:14;;;;;;;;;12.33;11.00;;;;;21.93;40.75;101522.66;110346;1261;21421;-51
2022/04/27 06:38:42;;;;;;;;;11.33;11.33;;;;;21.90;39.93;101524.20;110386;1261;23887;-53
2022/04/27 06:41:09;;;;;;;;;16.00;13.67;;;;;21.87;39.44;101526.30;110223;1262;20412;-53
2022/04/27 06:43:54;;;;;;;;;16.50;16.00;;;;;21.84;38.66;101530.48;110365;1261;19453;-52
2022/04/27 06:46:21;;;;;;;;;12.33;11.33;;;;;21.80;37.35;101531.14;110366;1261;23761;-53
2022/04/27 06:48:48;;;;;;;;;15.33;14.00;;;;;21.75;35.91;101536.08;110289;1260;20306;-55
2022/04/27 06:51:17;;;;;;;;;13.00;13.00;;;;;21.56;34.76;101538.65;110175;1262;19196;-56
2022/04/27 06:53:45;;;;;;;;;15.33;12.33;;;;;21.54;34.88;101538.06;110210;1262;19622;-52
2022/04/27 06:56:12;;;;;;;;;16.00;13.00;;;;;21.63;35.48;101544.55;110198;1262;20314;-51
2022/04/27 06:58:39;;;;;;;;;17.00;14.00;;;;;21.69;35.56;101544.83;110392;1261;22945;-52
2022/04/27 07:01:06;;;;;;;;;14.00;13.00;;;;;21.69;34.87;101543.83;110325;1261;19835;-53
2022/04/27 07:03:34;;;;;;;;;14.00;13.00;;;;;21.66;35.02;101542.66;110392;1261;20386;-52
2022/04/27 07:06:02;;;;;;;;;13.00;11.00;;;;;21.69;36.11;101541.03;110368;1261;21324;-56
2022/04/27 07:08:29;;;;;;;;;13.00;12.00;;;;;21.74;36.14;101540.30;110321;1261;20107;-53
2022/04/27 07:10:56;;;;;;;;;14.33;14.00;;;;;21.76;35.86;101544.70;110391;1261;20317;-53
2022/04/27 07:13:23;;;;;;;;;13.00;13.00;;;;;21.76;34.87;101545.23;110335;1262;19210;-52
2022/04/27 07:15:51;;;;;;;;;16.00;15.00;;;;;21.67;33.87;101544.73;110270;1261;23148;-53
2022/04/27 07:18:19;;;;;;;;;17.00;13.33;;;;;21.64;33.98;101552.43;110332;1262;23703;-52
2022/04/27 07:20:46;;;;;;;;;16.00;14.00;;;;;21.65;34.21;101554.45;110397;1261;19609;-49
2022/04/27 07:23:13;;;;;;;;;12.67;12.00;;;;;21.69;34.31;101556.34;110302;1262;19777;-54
2022/04/27 07:25:40;;;;;;;;;12.33;11.33;;;;;21.69;34.02;101559.38;110347;1261;20251;-53
2022/04/27 07:28:08;;;;;;;;;16.67;14.67;;;;;21.68;33.53;101560.47;110331;1262;19291;-53
2022/04/27 07:30:35;;;;;;;;;13.33;13.00;;;;;21.71;34.07;101560.65;110217;1262;19613;-53
2022/04/27 07:33:03;;;;;;;;;14.00;12.00;;;;;21.75;33.88;101560.37;110377;1261;22872;-51
2022/04/27 07:35:30;;;;;;;;;14.00;13.00;;;;;21.72;33.00;101560.73;110313;1261;23480;-51
2022/04/27 07:37:58;;;;;;;;;16.67;12.67;;;;;21.68;32.41;101561.90;110338;1262;19633;-52
2022/04/27 07:40:25;;;;;;;;;16.00;13.67;;;;;21.67;32.65;101565.61;110333;1261;20609;-52
2022/04/27 07:42:52;;;;;;;;;12.33;12.00;;;;;21.70;33.37;101566.21;110333;1262;22974;-52
2022/04/27 07:45:19;;;;;;;;;12.33;12.00;;;;;21.72;33.04;101563.63;110402;1261;19512;-51
2022/04/27 07:47:47;;;;;;;;;14.00;13.00;;;;;21.72;32.65;101571.09;110328;1261;20267;-51
2022/04/27 07:50:14;;;;;;;;;13.67;13.00;;;;;21.71;32.17;101568.27;110419;1261;22340;-55
2022/04/27 07:52:59;;;;;;;;;17.50;16.50;;;;;21.66;31.63;101567.95;110414;1261;22986;-54
2022/04/27 07:55:26;;;;;;;;;12.00;10.00;;;;;21.64;31.69;101564.13;110395;1261;20317;-53
2022/04/27 07:57:53;;;;;;;;;13.00;12.00;;;;;21.66;31.73;101566.13;110344;1261;19357;-54
2022/04/27 08:00:21;;;;;;;;;13.33;12.00;;;;;21.65;31.72;101569.86;110347;1261;19891;-51
2022/04/27 08:02:48;;;;;;;;;12.00;12.00;;;;;21.71;31.98;101565.73;110366;1262;22984;-54
2022/04/27 08:05:16;;;;;;;;;13.00;12.33;;;;;21.74;31.56;101563.59;110400;1262;19550;-54
2022/04/27 08:07:43;;;;;;;;;14.33;12.33;;;;;21.74;31.12;101565.60;110341;1261;23611;-54
2022/04/27 08:10:11;;;;;;;;;13.33;13.00;;;;;21.75;31.58;101563.67;110397;1261;20562;-53
2022/04/27 08:12:39;;;;;;;;;11.33;11.33;;;;;21.74;31.49;101566.84;110369;1261;19180;-54
2022/04/27 08:15:06;;;;;;;;;13.00;10.67;;;;;21.75;32.48;101566.72;110417;1262;23550;-51
2022/04/27 08:17:33;;;;;;;;;11.00;11.00;;;;;21.76;32.58;101572.69;110419;1261;27523;-56
2022/04/27 08:22:46;;;;;;;;;13.00;10.00;;;;;21.68;32.21;101574.61;110328;1261;23455;-52
2022/04/27 08:25:13;;;;;;;;;13.00;12.00;;;;;21.70;32.66;101573.63;110365;1261;20431;-53
2022/04/27 08:27:40;;;;;;;;;10.67;9.67;;;;;21.72;32.74;101580.88;110321;1261;19265;-51
2022/04/27 08:30:07;;;;;;;;;9.33;9.33;;;;;21.70;31.94;101581.66;110274;1261;19570;-54
2022/04/27 08:32:37;;;;;;;;;9.00;9.00;;;;;21.66;31.86;101584.66;110411;1261;20266;-54
2022/04/27 08:35:04;;;;;;;;;13.00;10.00;;;;;21.69;31.92;101580.32;110299;1261;23579;-54
2022/04/27 08:37:31;;;;;;;;;13.67;12.67;;;;;21.72;31.72;101580.40;110387;1261;19565;-52
2022/04/27 08:40:01;;;;;;;;;12.00;11.00;;;;;21.64;31.29;101589.57;110381;1261;20225;-56
2022/04/27 08:42:28;;;;;;;;;10.00;9.00;;;;;21.64;31.54;101588.69;110379;1261;19586;-54
2022/04/27 08:44:55;;;;;;;;;9.00;8.67;;;;;21.69;31.56;101587.45;110451;1261;23240;-54
2022/04/27 08:47:23;;;;;;;;;11.33;9.67;;;;;21.71;31.31;101593.02;110374;1261;20553;-54
2022/04/27 08:49:50;;;;;;;;;10.00;10.00;;;;;21.70;31.42;101592.20;110411;1262;19040;-56
2022/04/27 08:52:17;;;;;;;;;13.00;12.00;;;;;21.59;31.51;101592.85;110424;1262;22094;-54
2022/04/27 08:54:44;;;;;;;;;13.00;13.00;;;;;21.59;31.04;101599.17;110339;1261;21725;-54
2022/04/27 08:57:12;;;;;;;;;13.33;13.00;;;;;21.59;30.57;101595.75;110346;1261;19216;-56
2022/04/27 08:59:39;;;;;;;;;16.00;12.00;;;;;21.60;30.54;101594.50;110378;1261;20382;-54
2022/04/27 09:02:06;;;;;;;;;9.50;9.50;;;;;21.61;30.20;101595.35;110405;1261;22189;-56
2022/04/27 09:04:33;;;;;;;;;10.00;10.00;;;;;21.54;29.95;101594.23;110392;1262;19156;-54
2022/04/27 09:07:00;;;;;;;;;11.67;11.33;;;;;21.55;30.18;101599.39;110383;1261;19393;-54
2022/04/27 09:09:28;;;;;;;;;9.67;9.67;;;;;21.57;30.47;101595.19;110413;1261;20332;-55
2022/04/27 09:11:55;;;;;;;;;14.67;12.00;;;;;21.59;30.21;101592.24;110446;1261;19404;-55
2022/04/27 09:14:22;;;;;;;;;10.00;10.00;;;;;21.63;30.35;101601.36;110306;1261;26421;-59
2022/04/27 09:22:20;;;;;;;;;10.00;8.00;;;;;21.65;31.08;101600.73;110408;1261;21513;-55
2022/04/27 09:24:48;;;;;;;;;9.33;9.00;;;;;21.73;31.41;101598.45;110387;1261;23256;-53
2022/04/27 09:27:17;;;;;;;;;9.67;9.67;;;;;21.75;31.45;101596.83;110362;1261;19454;-53
2022/04/27 09:29:44;;;;;;;;;11.33;9.00;;;;;21.74;31.00;101601.63;110338;1261;20830;-51
2022/04/27 09:32:29;;;;;;;;;12.67;9.67;;;;;21.73;31.15;101599.72;110345;1261;20448;-52
2022/04/27 09:34:57;;;;;;;;;12.50;10.00;;;;;21.76;31.40;101592.30;110369;1261;19312;-51
2022/04/27 09:37:24;;;;;;;;;10.00;9.33;;;;;21.80;31.64;101595.27;110257;1262;23937;-56
2022/04/27 09:39:51;;;;;;;;;9.00;9.00;;;;;21.85;31.90;101595.48;110426;1261;22075;-55
2022/04/27 09:42:19;;;;;;;;;9.33;9.00;;;;;21.87;31.55;101593.10;110405;1261;19192;-51
2022/04/27 09:44:47;;;;;;;;;8.50;8.50;;;;;21.87;31.18;101593.67;110507;1260;19679;-56
2022/04/27 09:47:14;;;;;;;;;9.00;9.00;;;;;21.79;30.18;101596.41;110420;1261;20273;-53
2022/04/27 09:49:41;;;;;;;;;9.33;9.33;;;;;21.71;30.66;101593.88;110340;1261;23141;-55
2022/04/27 09:52:09;;;;;;;;;9.67;9.00;;;;;21.71;30.26;101593.75;110428;1261;19796;-55
2022/04/27 09:54:36;;;;;;;;;12.33;10.67;;;;;21.69;30.11;101597.27;110413;1261;20251;-53
2022/04/27 09:57:04;;;;;;;;;9.67;9.00;;;;;21.67;29.87;101599.23;110438;1261;23462;-57
2022/04/27 09:59:31;;;;;;;;;10.00;9.33;;;;;21.66;30.17;101593.61;110394;1261;19592;-54
2022/04/27 10:01:58;;;;;;;;;10.00;10.00;;;;;21.57;30.35;101589.74;110381;1261;20643;-53
2022/04/27 10:04:25;;;;;;;;;12.67;10.00;;;;;21.41;30.25;101595.60;110381;1261;23368;-51
2022/04/27 10:06:53;;;;;;;;;12.00;10.00;;;;;21.33;29.85;101593.04;110299;1262;19600;-53
2022/04/27 10:09:20;;;;;;;;;9.00;8.00;;;;;21.32;29.98;101593.80;110409;1261;20285;-53
2022/04/27 10:11:53;;;;;;;;;10.00;10.00;;;;;21.36;30.40;101597.30;110442;1261;22878;-54
2022/04/27 10:14:20;;;;;;;;;9.67;9.33;;;;;21.40;30.38;101595.80;110273;1262;23589;-52
2022/04/27 10:16:48;;;;;;;;;10.67;10.00;;;;;21.41;30.43;101596.94;110337;1262;23077;-52
2022/04/27 10:19:17;;;;;;;;;12.00;10.00;;;;;21.39;30.32;101595.83;110357;1261;23249;-51
2022/04/27 10:21:56;;;;;;;;;18.00;16.00;;;;;21.29;30.28;101593.58;110194;1262;23138;-50
2022/04/27 10:24:23;;;;;;;;;21.67;17.67;;;;;21.29;30.43;101597.05;110193;1262;20265;-51
2022/04/27 10:26:51;;;;;;;;;20.33;18.33;;;;;21.31;30.17;101596.91;110328;1261;19586;-49
2022/04/27 10:29:18;;;;;;;;;13.67;13.33;;;;;21.31;30.06;101598.64;110306;1261;23109;-51
2022/04/27 10:31:47;;;;;;;;;13.00;13.00;;;;;21.31;29.97;101596.88;110283;1261;30482;-51
2022/04/27 10:34:14;;;;;;;;;13.33;13.00;;;;;21.31;30.12;101600.70;110380;1261;19278;-50
2022/04/27 10:36:41;;;;;;;;;13.67;12.33;;;;;21.27;30.25;101603.98;110364;1261;22917;-54
2022/04/27 10:39:09;;;;;;;;;13.67;13.00;;;;;21.25;30.12;101602.19;110397;1261;22418;-52
2022/04/27 10:41:36;;;;;;;;;10.00;10.00;;;;;21.25;30.28;101605.66;110331;1261;23571;-52
2022/04/27 10:44:03;;;;;;;;;13.67;12.33;;;;;21.23;30.32;101605.36;110336;1261;19560;-57
2022/04/27 10:46:30;;;;;;;;;9.33;9.00;;;;;21.14;30.10;101610.38;110367;1261;20573;-50
2022/04/27 10:48:58;;;;;;;;;12.00;11.33;;;;;21.09;30.25;101612.00;110352;1262;19570;-55
2022/04/27 10:51:25;;;;;;;;;12.33;9.33;;;;;21.07;30.54;101606.95;110344;1262;19510;-54
2022/04/27 10:53:53;;;;;;;;;13.33;12.00;;;;;21.12;30.63;101604.15;110335;1262;22595;-52
2022/04/27 10:56:20;;;;;;;;;15.33;12.00;;;;;21.02;30.74;101606.42;110357;1262;19258;-54
2022/04/27 10:59:05;;;;;;;;;8.67;8.00;;;;;20.98;30.63;101607.32;110229;1262;19707;-53
2022/04/27 11:01:34;;;;;;;;;10.00;9.00;;;;;21.06;30.99;101604.27;110341;1261;20458;-55
2022/04/27 11:04:01;;;;;;;;;9.00;9.00;;;;;21.11;30.89;101602.02;110296;1261;19238;-50
2022/04/27 11:06:30;;;;;;;;;9.00;8.33;;;;;21.14;30.73;101598.65;110341;1261;19419;-54
2022/04/27 11:08:57;;;;;;;;;10.00;9.00;;;;;21.16;30.74;101604.30;110392;1261;20434;-51
2022/04/27 11:11:27;;;;;;;;;10.00;9.00;;;;;21.14;31.43;101600.59;110354;1262;19310;-54
2022/04/27 11:13:54;;;;;;;;;11.33;10.00;;;;;21.16;31.28;101603.69;110321;1261;21717;-49
2022/04/27 11:16:21;;;;;;;;;11.33;10.00;;;;;21.16;31.14;101606.20;110267;1261;20600;-54
2022/04/27 11:18:49;;;;;;;;;12.00;10.00;;;;;21.07;30.88;101602.95;110413;1261;19142;-52
2022/04/27 11:21:16;;;;;;;;;12.00;9.67;;;;;21.04;30.70;101598.84;110394;1261;19546;-50
2022/04/27 11:23:43;;;;;;;;;10.00;10.00;;;;;20.96;30.68;101595.76;110368;1261;20283;-55
2022/04/27 11:26:10;;;;;;;;;14.00;13.00;;;;;20.94;30.58;101594.33;110264;1262;22972;-52
2022/04/27 11:28:39;;;;;;;;;9.00;9.00;;;;;20.96;31.04;101590.84;110362;1261;19642;-51
2022/04/27 11:31:06;;;;;;;;;10.00;9.00;;;;;21.09;31.27;101596.63;110346;1261;23083;-56
2022/04/27 11:33:39;;;;;;;;;11.00;11.00;;;;;21.22;31.46;101596.02;110353;1261;23121;-52